sensor_id;sensor_type;location;lat;lon;timestamp;pressure;altitude;pressure_sealevel;temperature;humidity
34034;BME280;63481;52.588;22.472;2024-02-14T00:00:59;100545.96;;;2.92;100.00
34034;BME280;63481;52.588;22.472;2024-02-14T00:06:12;100549.94;;;3.12;100.00
34034;BME280;63481;52.588;22.472;2024-02-14T00:11:16;100552.89;;;3.18;100.00
34034;BME280;63481;52.588;22.472;2024-02-14T00:16:18;100553.73;;;3.17;100.00
34034;BME280;63481;52.588;22.472;2024-02-14T00:21:20;100557.39;;;3.20;100.00
34034;BME280;63481;52.588;22.472;2024-02-14T00:26:22;100563.46;;;3.11;100.00
34034;BME280;63481;52.588;22.472;2024-02-14T00:31:24;100564.89;;;3.09;100.00
34034;BME280;63481;52.588;22.472;2024-02-14T00:36:25;100565.77;;;2.98;100.00
34034;BME280;63481;52.588;22.472;2024-02-14T00:41:27;100569.35;;;3.08;100.00
34034;BME280;63481;52.588;22.472;2024-02-14T00:46:32;100561.55;;;3.01;100.00
34034;BME280;63481;52.588;22.472;2024-02-14T00:51:34;100558.95;;;3.08;100.00
34034;BME280;63481;52.588;22.472;2024-02-14T00:56:36;100567.81;;;3.09;100.00
34034;BME280;63481;52.588;22.472;2024-02-14T01:01:38;100571.09;;;2.87;100.00
34034;BME280;63481;52.588;22.472;2024-02-14T01:06:40;100574.94;;;2.74;100.00
34034;BME280;63481;52.588;22.472;2024-02-14T01:11:42;100573.20;;;2.69;100.00
34034;BME280;63481;52.588;22.472;2024-02-14T01:16:44;100582.96;;;2.84;100.00
34034;BME280;63481;52.588;22.472;2024-02-14T01:21:46;100587.70;;;2.86;100.00
34034;BME280;63481;52.588;22.472;2024-02-14T01:26:50;100588.16;;;2.79;100.00
34034;BME280;63481;52.588;22.472;2024-02-14T01:31:52;100594.04;;;2.66;100.00
34034;BME280;63481;52.588;22.472;2024-02-14T01:36:54;100598.48;;;2.63;100.00
34034;BME280;63481;52.588;22.472;2024-02-14T01:41:56;100606.76;;;2.54;100.00
34034;BME280;63481;52.588;22.472;2024-02-14T01:46:58;100603.52;;;2.46;100.00
34034;BME280;63481;52.588;22.472;2024-02-14T01:52:02;100605.30;;;2.36;100.00
34034;BME280;63481;52.588;22.472;2024-02-14T01:57:05;100606.11;;;2.36;100.00
34034;BME280;63481;52.588;22.472;2024-02-14T02:02:07;100609.48;;;2.09;100.00
34034;BME280;63481;52.588;22.472;2024-02-14T02:07:10;100617.43;;;1.84;100.00
34034;BME280;63481;52.588;22.472;2024-02-14T02:12:12;100623.28;;;1.78;100.00
34034;BME280;63481;52.588;22.472;2024-02-14T02:17:13;100630.91;;;1.58;100.00
34034;BME280;63481;52.588;22.472;2024-02-14T02:22:15;100637.45;;;1.36;100.00
34034;BME280;63481;52.588;22.472;2024-02-14T02:27:17;100643.14;;;1.27;100.00
34034;BME280;63481;52.588;22.472;2024-02-14T02:32:19;100651.55;;;1.35;100.00
34034;BME280;63481;52.588;22.472;2024-02-14T02:37:20;100655.42;;;1.46;100.00
34034;BME280;63481;52.588;22.472;2024-02-14T02:42:22;100660.79;;;1.47;100.00
34034;BME280;63481;52.588;22.472;2024-02-14T02:47:24;100667.35;;;1.54;100.00
34034;BME280;63481;52.588;22.472;2024-02-14T02:52:26;100662.81;;;1.40;100.00
34034;BME280;63481;52.588;22.472;2024-02-14T02:57:28;100662.53;;;1.18;100.00
34034;BME280;63481;52.588;22.472;2024-02-14T03:02:31;100667.59;;;1.16;100.00
34034;BME280;63481;52.588;22.472;2024-02-14T03:07:32;100676.29;;;1.13;100.00
34034;BME280;63481;52.588;22.472;2024-02-14T03:12:35;100683.36;;;1.18;100.00
34034;BME280;63481;52.588;22.472;2024-02-14T03:17:36;100688.39;;;1.23;100.00
34034;BME280;63481;52.588;22.472;2024-02-14T03:22:39;100691.55;;;1.23;100.00
34034;BME280;63481;52.588;22.472;2024-02-14T03:27:47;100701.27;;;1.24;100.00
34034;BME280;63481;52.588;22.472;2024-02-14T03:32:50;100705.35;;;1.25;100.00
34034;BME280;63481;52.588;22.472;2024-02-14T03:37:53;100704.35;;;1.48;100.00
34034;BME280;63481;52.588;22.472;2024-02-14T03:42:56;100708.99;;;1.68;100.00
34034;BME280;63481;52.588;22.472;2024-02-14T03:47:58;100708.28;;;1.43;100.00
34034;BME280;63481;52.588;22.472;2024-02-14T03:53:00;100711.20;;;1.24;100.00
34034;BME280;63481;52.588;22.472;2024-02-14T03:58:02;100714.85;;;1.07;100.00
34034;BME280;63481;52.588;22.472;2024-02-14T04:03:04;100718.86;;;1.17;100.00
34034;BME280;63481;52.588;22.472;2024-02-14T04:08:07;100723.33;;;1.32;100.00
34034;BME280;63481;52.588;22.472;2024-02-14T04:13:11;100723.82;;;1.02;100.00
34034;BME280;63481;52.588;22.472;2024-02-14T04:18:13;100733.10;;;0.66;100.00
34034;BME280;63481;52.588;22.472;2024-02-14T04:23:16;100737.68;;;0.49;100.00
34034;BME280;63481;52.588;22.472;2024-02-14T04:28:18;100745.38;;;0.35;100.00
34034;BME280;63481;52.588;22.472;2024-02-14T04:33:20;100749.02;;;0.15;100.00
34034;BME280;63481;52.588;22.472;2024-02-14T04:38:23;100753.82;;;-0.09;100.00
34034;BME280;63481;52.588;22.472;2024-02-14T04:43:25;100764.95;;;-0.17;100.00
34034;BME280;63481;52.588;22.472;2024-02-14T04:48:28;100773.63;;;-0.25;100.00
34034;BME280;63481;52.588;22.472;2024-02-14T04:53:30;100778.89;;;-0.31;100.00
34034;BME280;63481;52.588;22.472;2024-02-14T04:58:32;100776.84;;;-0.47;100.00
34034;BME280;63481;52.588;22.472;2024-02-14T05:03:34;100781.49;;;-0.61;100.00
34034;BME280;63481;52.588;22.472;2024-02-14T05:08:35;100783.34;;;-0.62;100.00
34034;BME280;63481;52.588;22.472;2024-02-14T05:13:37;100790.30;;;-0.64;100.00
34034;BME280;63481;52.588;22.472;2024-02-14T05:18:39;100793.20;;;-0.83;100.00
34034;BME280;63481;52.588;22.472;2024-02-14T05:23:41;100796.73;;;-1.03;100.00
34034;BME280;63481;52.588;22.472;2024-02-14T05:28:43;100800.45;;;-1.13;100.00
34034;BME280;63481;52.588;22.472;2024-02-14T05:33:44;100804.42;;;-1.20;100.00
34034;BME280;63481;52.588;22.472;2024-02-14T05:38:46;100809.77;;;-1.21;100.00
34034;BME280;63481;52.588;22.472;2024-02-14T05:43:48;100813.48;;;-1.08;100.00
34034;BME280;63481;52.588;22.472;2024-02-14T05:48:50;100822.27;;;-0.98;100.00
34034;BME280;63481;52.588;22.472;2024-02-14T05:53:53;100819.83;;;-0.78;100.00
34034;BME280;63481;52.588;22.472;2024-02-14T05:58:55;100827.96;;;-1.06;100.00
34034;BME280;63481;52.588;22.472;2024-02-14T06:03:57;100833.39;;;-1.02;100.00
34034;BME280;63481;52.588;22.472;2024-02-14T06:08:58;100846.33;;;-1.04;100.00
34034;BME280;63481;52.588;22.472;2024-02-14T06:14:00;100853.80;;;-1.04;100.00
34034;BME280;63481;52.588;22.472;2024-02-14T06:19:02;100858.00;;;-1.01;100.00
34034;BME280;63481;52.588;22.472;2024-02-14T06:24:06;100864.55;;;-0.96;100.00
34034;BME280;63481;52.588;22.472;2024-02-14T06:29:07;100870.63;;;-0.82;100.00
34034;BME280;63481;52.588;22.472;2024-02-14T06:34:09;100874.19;;;-0.74;100.00
34034;BME280;63481;52.588;22.472;2024-02-14T06:39:12;100876.41;;;-0.63;100.00
34034;BME280;63481;52.588;22.472;2024-02-14T06:44:14;100863.23;;;-0.42;100.00
34034;BME280;63481;52.588;22.472;2024-02-14T06:49:16;100869.91;;;-0.18;100.00
34034;BME280;63481;52.588;22.472;2024-02-14T06:54:19;100871.20;;;0.09;100.00
34034;BME280;63481;52.588;22.472;2024-02-14T06:59:21;100866.42;;;0.47;100.00
34034;BME280;63481;52.588;22.472;2024-02-14T07:04:23;100865.30;;;1.04;100.00
34034;BME280;63481;52.588;22.472;2024-02-14T07:09:27;100863.27;;;1.36;100.00
34034;BME280;63481;52.588;22.472;2024-02-14T07:14:29;100862.53;;;1.50;100.00
34034;BME280;63481;52.588;22.472;2024-02-14T07:19:31;100865.08;;;1.49;100.00
34034;BME280;63481;52.588;22.472;2024-02-14T07:24:33;100864.77;;;1.72;100.00
34034;BME280;63481;52.588;22.472;2024-02-14T07:29:35;100868.16;;;2.11;100.00
34034;BME280;63481;52.588;22.472;2024-02-14T07:34:41;100864.85;;;2.33;100.00
34034;BME280;63481;52.588;22.472;2024-02-14T07:39:42;100861.48;;;2.34;100.00
34034;BME280;63481;52.588;22.472;2024-02-14T07:44:44;100856.11;;;2.49;100.00
34034;BME280;63481;52.588;22.472;2024-02-14T07:49:46;100854.35;;;2.53;100.00
34034;BME280;63481;52.588;22.472;2024-02-14T07:54:54;100853.63;;;2.74;100.00
34034;BME280;63481;52.588;22.472;2024-02-14T07:59:56;100852.01;;;2.89;100.00
34034;BME280;63481;52.588;22.472;2024-02-14T08:04:58;100856.94;;;3.08;100.00
34034;BME280;63481;52.588;22.472;2024-02-14T08:10:00;100861.31;;;3.21;100.00
34034;BME280;63481;52.588;22.472;2024-02-14T08:15:02;100866.20;;;3.25;100.00
34034;BME280;63481;52.588;22.472;2024-02-14T08:20:07;100859.65;;;3.29;100.00
34034;BME280;63481;52.588;22.472;2024-02-14T08:25:09;100856.83;;;3.49;100.00
34034;BME280;63481;52.588;22.472;2024-02-14T08:30:11;100851.81;;;3.81;100.00
34034;BME280;63481;52.588;22.472;2024-02-14T08:35:13;100849.92;;;3.97;100.00
34034;BME280;63481;52.588;22.472;2024-02-14T08:40:15;100850.09;;;4.29;100.00
34034;BME280;63481;52.588;22.472;2024-02-14T08:45:17;100851.39;;;4.38;100.00
34034;BME280;63481;52.588;22.472;2024-02-14T08:50:19;100852.88;;;4.57;100.00
34034;BME280;63481;52.588;22.472;2024-02-14T08:55:20;100846.31;;;4.61;100.00
34034;BME280;63481;52.588;22.472;2024-02-14T09:00:22;100846.23;;;4.70;100.00
34034;BME280;63481;52.588;22.472;2024-02-14T09:05:24;100843.55;;;4.99;100.00
34034;BME280;63481;52.588;22.472;2024-02-14T09:10:26;100838.05;;;5.19;100.00
34034;BME280;63481;52.588;22.472;2024-02-14T09:15:28;100832.34;;;5.27;100.00
34034;BME280;63481;52.588;22.472;2024-02-14T09:20:30;100838.02;;;5.24;100.00
34034;BME280;63481;52.588;22.472;2024-02-14T09:25:31;100836.89;;;5.40;100.00
34034;BME280;63481;52.588;22.472;2024-02-14T09:30:33;100836.50;;;5.48;100.00
34034;BME280;63481;52.588;22.472;2024-02-14T09:35:35;100839.53;;;5.54;100.00
34034;BME280;63481;52.588;22.472;2024-02-14T09:40:42;100834.40;;;5.61;100.00
34034;BME280;63481;52.588;22.472;2024-02-14T09:45:44;100832.95;;;5.63;100.00
34034;BME280;63481;52.588;22.472;2024-02-14T09:50:48;100834.10;;;5.88;100.00
34034;BME280;63481;52.588;22.472;2024-02-14T09:55:50;100829.98;;;6.04;100.00
34034;BME280;63481;52.588;22.472;2024-02-14T10:00:52;100829.49;;;6.30;100.00
34034;BME280;63481;52.588;22.472;2024-02-14T10:05:54;100824.56;;;6.36;100.00
34034;BME280;63481;52.588;22.472;2024-02-14T10:10:57;100822.29;;;6.49;100.00
34034;BME280;63481;52.588;22.472;2024-02-14T10:16:00;100821.36;;;6.51;100.00
34034;BME280;63481;52.588;22.472;2024-02-14T10:21:02;100817.45;;;6.46;100.00
34034;BME280;63481;52.588;22.472;2024-02-14T10:26:04;100814.90;;;6.57;100.00
34034;BME280;63481;52.588;22.472;2024-02-14T10:31:06;100814.55;;;6.73;100.00
34034;BME280;63481;52.588;22.472;2024-02-14T10:36:08;100811.34;;;6.90;100.00
34034;BME280;63481;52.588;22.472;2024-02-14T10:41:11;100809.38;;;7.22;100.00
34034;BME280;63481;52.588;22.472;2024-02-14T10:46:20;100798.42;;;7.50;100.00
34034;BME280;63481;52.588;22.472;2024-02-14T10:51:25;100794.85;;;7.66;100.00
34034;BME280;63481;52.588;22.472;2024-02-14T10:56:28;100791.61;;;7.51;100.00
34034;BME280;63481;52.588;22.472;2024-02-14T11:01:31;100791.40;;;7.47;100.00
34034;BME280;63481;52.588;22.472;2024-02-14T11:07:08;100785.13;;;7.55;100.00
34034;BME280;63481;52.588;22.472;2024-02-14T11:12:10;100784.55;;;7.59;100.00
34034;BME280;63481;52.588;22.472;2024-02-14T11:17:12;100785.42;;;7.57;100.00
34034;BME280;63481;52.588;22.472;2024-02-14T11:22:19;100785.48;;;7.70;100.00
34034;BME280;63481;52.588;22.472;2024-02-14T11:27:22;100781.70;;;7.69;100.00
34034;BME280;63481;52.588;22.472;2024-02-14T11:32:24;100778.70;;;7.81;100.00
34034;BME280;63481;52.588;22.472;2024-02-14T11:37:29;100769.38;;;7.83;100.00
34034;BME280;63481;52.588;22.472;2024-02-14T11:42:31;100769.41;;;7.93;100.00
34034;BME280;63481;52.588;22.472;2024-02-14T11:47:33;100768.60;;;7.85;98.89
34034;BME280;63481;52.588;22.472;2024-02-14T11:52:35;100764.66;;;8.06;98.98
34034;BME280;63481;52.588;22.472;2024-02-14T11:57:37;100759.67;;;8.20;95.37
34034;BME280;63481;52.588;22.472;2024-02-14T12:02:39;100759.61;;;8.21;95.03
34034;BME280;63481;52.588;22.472;2024-02-14T12:07:41;100756.95;;;8.22;95.67
34034;BME280;63481;52.588;22.472;2024-02-14T12:12:47;100757.58;;;8.21;94.22
34034;BME280;63481;52.588;22.472;2024-02-14T12:17:49;100750.85;;;8.14;96.35
34034;BME280;63481;52.588;22.472;2024-02-14T12:22:51;100745.73;;;8.08;96.55
34034;BME280;63481;52.588;22.472;2024-02-14T12:27:52;100747.07;;;8.12;98.75
34034;BME280;63481;52.588;22.472;2024-02-14T12:32:58;100752.16;;;8.09;99.09
34034;BME280;63481;52.588;22.472;2024-02-14T12:38:01;100752.13;;;8.21;97.23
34034;BME280;63481;52.588;22.472;2024-02-14T12:43:03;100748.65;;;8.13;93.99
34034;BME280;63481;52.588;22.472;2024-02-14T12:48:08;100751.36;;;8.18;97.38
34034;BME280;63481;52.588;22.472;2024-02-14T12:53:10;100749.63;;;8.18;95.43
34034;BME280;63481;52.588;22.472;2024-02-14T12:58:12;100755.48;;;8.14;97.71
34034;BME280;63481;52.588;22.472;2024-02-14T13:03:14;100754.84;;;8.12;99.46
34034;BME280;63481;52.588;22.472;2024-02-14T13:08:16;100756.73;;;8.29;99.00
34034;BME280;63481;52.588;22.472;2024-02-14T13:13:18;100757.39;;;9.06;91.13
34034;BME280;63481;52.588;22.472;2024-02-14T13:18:20;100753.53;;;8.99;90.90
34034;BME280;63481;52.588;22.472;2024-02-14T13:23:21;100753.96;;;9.18;92.11
34034;BME280;63481;52.588;22.472;2024-02-14T13:28:24;100750.00;;;9.13;91.94
34034;BME280;63481;52.588;22.472;2024-02-14T13:33:26;100749.34;;;10.25;85.95
34034;BME280;63481;52.588;22.472;2024-02-14T13:38:28;100738.33;;;11.91;70.67
34034;BME280;63481;52.588;22.472;2024-02-14T13:43:30;100746.09;;;11.74;65.89
34034;BME280;63481;52.588;22.472;2024-02-14T13:48:32;100751.11;;;10.88;71.02
34034;BME280;63481;52.588;22.472;2024-02-14T13:53:34;100758.21;;;10.38;75.50
34034;BME280;63481;52.588;22.472;2024-02-14T13:58:36;100757.95;;;10.08;79.19
34034;BME280;63481;52.588;22.472;2024-02-14T14:03:40;100752.98;;;10.61;76.57
34034;BME280;63481;52.588;22.472;2024-02-14T14:08:42;100753.73;;;9.88;80.21
34034;BME280;63481;52.588;22.472;2024-02-14T14:13:44;100754.48;;;9.47;78.26
34034;BME280;63481;52.588;22.472;2024-02-14T14:18:46;100751.09;;;8.99;82.10
34034;BME280;63481;52.588;22.472;2024-02-14T14:23:47;100752.48;;;8.94;84.00
34034;BME280;63481;52.588;22.472;2024-02-14T14:28:49;100755.06;;;8.74;89.22
34034;BME280;63481;52.588;22.472;2024-02-14T14:33:51;100758.52;;;8.51;89.69
34034;BME280;63481;52.588;22.472;2024-02-14T14:38:53;100760.64;;;8.15;91.14
34034;BME280;63481;52.588;22.472;2024-02-14T14:43:56;100759.61;;;8.14;93.21
34034;BME280;63481;52.588;22.472;2024-02-14T14:48:58;100761.43;;;8.04;93.79
34034;BME280;63481;52.588;22.472;2024-02-14T14:54:00;100766.23;;;7.71;95.53
34034;BME280;63481;52.588;22.472;2024-02-14T14:59:01;100764.29;;;7.61;100.00
34034;BME280;63481;52.588;22.472;2024-02-14T15:04:04;100770.98;;;7.22;100.00
34034;BME280;63481;52.588;22.472;2024-02-14T15:09:08;100774.05;;;6.84;100.00
34034;BME280;63481;52.588;22.472;2024-02-14T15:14:10;100775.75;;;6.65;100.00
34034;BME280;63481;52.588;22.472;2024-02-14T15:19:12;100775.89;;;6.50;100.00
34034;BME280;63481;52.588;22.472;2024-02-14T15:24:13;100781.05;;;6.14;100.00
34034;BME280;63481;52.588;22.472;2024-02-14T15:29:17;100779.14;;;5.74;100.00
34034;BME280;63481;52.588;22.472;2024-02-14T15:34:37;100779.38;;;5.27;100.00
34034;BME280;63481;52.588;22.472;2024-02-14T15:39:39;100781.58;;;4.89;100.00
34034;BME280;63481;52.588;22.472;2024-02-14T15:44:40;100785.57;;;4.52;100.00
34034;BME280;63481;52.588;22.472;2024-02-14T15:49:42;100787.47;;;4.23;100.00
34034;BME280;63481;52.588;22.472;2024-02-14T15:54:44;100792.56;;;4.00;100.00
34034;BME280;63481;52.588;22.472;2024-02-14T15:59:46;100795.45;;;3.73;100.00
34034;BME280;63481;52.588;22.472;2024-02-14T16:04:48;100800.12;;;3.32;100.00
34034;BME280;63481;52.588;22.472;2024-02-14T16:09:50;100805.48;;;3.04;100.00
34034;BME280;63481;52.588;22.472;2024-02-14T16:14:52;100808.11;;;2.74;100.00
34034;BME280;63481;52.588;22.472;2024-02-14T16:19:54;100809.08;;;2.51;100.00
34034;BME280;63481;52.588;22.472;2024-02-14T16:24:56;100812.06;;;2.29;100.00
34034;BME280;63481;52.588;22.472;2024-02-14T16:29:58;100813.08;;;2.05;100.00
34034;BME280;63481;52.588;22.472;2024-02-14T16:35:01;100812.16;;;1.82;100.00
34034;BME280;63481;52.588;22.472;2024-02-14T16:40:03;100815.10;;;1.59;100.00
34034;BME280;63481;52.588;22.472;2024-02-14T16:45:06;100815.50;;;1.45;100.00
34034;BME280;63481;52.588;22.472;2024-02-14T16:50:08;100818.02;;;1.26;100.00
34034;BME280;63481;52.588;22.472;2024-02-14T16:55:10;100822.58;;;1.14;100.00
34034;BME280;63481;52.588;22.472;2024-02-14T17:00:12;100829.16;;;1.11;100.00
34034;BME280;63481;52.588;22.472;2024-02-14T17:05:14;100835.61;;;1.17;100.00
34034;BME280;63481;52.588;22.472;2024-02-14T17:10:16;100841.94;;;1.21;100.00
34034;BME280;63481;52.588;22.472;2024-02-14T17:15:18;100842.13;;;1.29;100.00
34034;BME280;63481;52.588;22.472;2024-02-14T17:20:20;100843.27;;;1.28;100.00
34034;BME280;63481;52.588;22.472;2024-02-14T17:25:22;100845.09;;;1.21;100.00
34034;BME280;63481;52.588;22.472;2024-02-14T17:30:24;100850.05;;;1.06;100.00
34034;BME280;63481;52.588;22.472;2024-02-14T17:35:26;100851.94;;;0.95;100.00
34034;BME280;63481;52.588;22.472;2024-02-14T17:40:27;100855.48;;;0.86;100.00
34034;BME280;63481;52.588;22.472;2024-02-14T17:45:30;100863.92;;;0.81;100.00
34034;BME280;63481;52.588;22.472;2024-02-14T17:50:31;100867.73;;;0.74;100.00
34034;BME280;63481;52.588;22.472;2024-02-14T17:55:34;100868.39;;;0.74;100.00
34034;BME280;63481;52.588;22.472;2024-02-14T18:00:35;100868.19;;;0.66;100.00
34034;BME280;63481;52.588;22.472;2024-02-14T18:05:37;100868.90;;;0.57;100.00
34034;BME280;63481;52.588;22.472;2024-02-14T18:10:42;100871.27;;;0.54;100.00
34034;BME280;63481;52.588;22.472;2024-02-14T18:15:45;100876.40;;;0.53;100.00
34034;BME280;63481;52.588;22.472;2024-02-14T18:20:48;100880.19;;;0.52;100.00
34034;BME280;63481;52.588;22.472;2024-02-14T18:25:49;100891.66;;;0.41;100.00
34034;BME280;63481;52.588;22.472;2024-02-14T18:30:51;100894.59;;;0.41;100.00
34034;BME280;63481;52.588;22.472;2024-02-14T18:35:53;100893.20;;;0.49;100.00
34034;BME280;63481;52.588;22.472;2024-02-14T18:40:55;100890.48;;;0.55;100.00
34034;BME280;63481;52.588;22.472;2024-02-14T18:45:59;100882.55;;;0.62;100.00
34034;BME280;63481;52.588;22.472;2024-02-14T18:51:01;100880.81;;;0.78;100.00
34034;BME280;63481;52.588;22.472;2024-02-14T18:56:03;100880.77;;;0.75;100.00
34034;BME280;63481;52.588;22.472;2024-02-14T19:01:05;100881.00;;;0.74;100.00
34034;BME280;63481;52.588;22.472;2024-02-14T19:06:07;100882.12;;;0.79;100.00
34034;BME280;63481;52.588;22.472;2024-02-14T19:11:09;100882.37;;;0.89;100.00
34034;BME280;63481;52.588;22.472;2024-02-14T19:16:11;100882.64;;;0.98;100.00
34034;BME280;63481;52.588;22.472;2024-02-14T19:21:13;100878.02;;;1.03;100.00
34034;BME280;63481;52.588;22.472;2024-02-14T19:26:15;100873.68;;;1.00;100.00
34034;BME280;63481;52.588;22.472;2024-02-14T19:31:16;100882.52;;;1.07;100.00
34034;BME280;63481;52.588;22.472;2024-02-14T19:36:18;100889.64;;;1.27;100.00
34034;BME280;63481;52.588;22.472;2024-02-14T19:41:20;100893.70;;;1.32;100.00
34034;BME280;63481;52.588;22.472;2024-02-14T19:46:22;100897.59;;;1.48;100.00
34034;BME280;63481;52.588;22.472;2024-02-14T19:51:25;100893.91;;;1.58;100.00
34034;BME280;63481;52.588;22.472;2024-02-14T19:56:27;100896.73;;;1.73;100.00
34034;BME280;63481;52.588;22.472;2024-02-14T20:01:29;100898.89;;;1.81;100.00
34034;BME280;63481;52.588;22.472;2024-02-14T20:06:31;100897.52;;;1.87;100.00
34034;BME280;63481;52.588;22.472;2024-02-14T20:11:33;100902.91;;;2.05;100.00
34034;BME280;63481;52.588;22.472;2024-02-14T20:16:35;100903.69;;;2.21;100.00
34034;BME280;63481;52.588;22.472;2024-02-14T20:21:37;100907.66;;;2.28;100.00
34034;BME280;63481;52.588;22.472;2024-02-14T20:26:39;100910.15;;;2.33;100.00
34034;BME280;63481;52.588;22.472;2024-02-14T20:31:44;100907.20;;;2.25;100.00
34034;BME280;63481;52.588;22.472;2024-02-14T20:36:46;100905.45;;;2.33;100.00
34034;BME280;63481;52.588;22.472;2024-02-14T20:41:47;100909.02;;;2.32;100.00
34034;BME280;63481;52.588;22.472;2024-02-14T20:46:49;100908.19;;;2.37;100.00
34034;BME280;63481;52.588;22.472;2024-02-14T20:51:53;100903.48;;;2.35;100.00
34034;BME280;63481;52.588;22.472;2024-02-14T20:56:55;100898.52;;;2.26;100.00
34034;BME280;63481;52.588;22.472;2024-02-14T21:01:57;100895.94;;;2.26;100.00
34034;BME280;63481;52.588;22.472;2024-02-14T21:06:59;100891.48;;;2.34;100.00
34034;BME280;63481;52.588;22.472;2024-02-14T21:12:02;100889.08;;;2.35;100.00
34034;BME280;63481;52.588;22.472;2024-02-14T21:17:04;100890.51;;;2.31;100.00
34034;BME280;63481;52.588;22.472;2024-02-14T21:22:06;100888.80;;;2.36;100.00
34034;BME280;63481;52.588;22.472;2024-02-14T21:27:08;100883.77;;;2.41;100.00
34034;BME280;63481;52.588;22.472;2024-02-14T21:32:10;100878.88;;;2.55;100.00
34034;BME280;63481;52.588;22.472;2024-02-14T21:37:12;100882.20;;;2.57;100.00
34034;BME280;63481;52.588;22.472;2024-02-14T21:42:14;100878.96;;;2.50;100.00
34034;BME280;63481;52.588;22.472;2024-02-14T21:47:16;100875.86;;;2.48;100.00
34034;BME280;63481;52.588;22.472;2024-02-14T21:52:18;100881.52;;;2.57;100.00
34034;BME280;63481;52.588;22.472;2024-02-14T21:57:19;100884.09;;;2.56;100.00
34034;BME280;63481;52.588;22.472;2024-02-14T22:02:21;100881.67;;;2.57;100.00
34034;BME280;63481;52.588;22.472;2024-02-14T22:07:23;100876.63;;;2.58;100.00
34034;BME280;63481;52.588;22.472;2024-02-14T22:12:25;100873.42;;;2.70;100.00
34034;BME280;63481;52.588;22.472;2024-02-14T22:17:26;100873.55;;;2.82;100.00
34034;BME280;63481;52.588;22.472;2024-02-14T22:22:29;100877.86;;;2.85;100.00
34034;BME280;63481;52.588;22.472;2024-02-14T22:27:31;100873.86;;;2.60;100.00
34034;BME280;63481;52.588;22.472;2024-02-14T22:32:33;100865.28;;;2.65;100.00
34034;BME280;63481;52.588;22.472;2024-02-14T22:37:35;100864.48;;;2.64;100.00
34034;BME280;63481;52.588;22.472;2024-02-14T22:42:36;100869.39;;;2.61;100.00
34034;BME280;63481;52.588;22.472;2024-02-14T22:47:38;100865.67;;;2.65;100.00
34034;BME280;63481;52.588;22.472;2024-02-14T22:52:40;100864.64;;;2.72;100.00
34034;BME280;63481;52.588;22.472;2024-02-14T22:57:42;100862.95;;;2.84;100.00
34034;BME280;63481;52.588;22.472;2024-02-14T23:02:44;100870.58;;;2.72;100.00
34034;BME280;63481;52.588;22.472;2024-02-14T23:07:51;100878.39;;;2.70;100.00
34034;BME280;63481;52.588;22.472;2024-02-14T23:12:53;100880.29;;;2.68;100.00
34034;BME280;63481;52.588;22.472;2024-02-14T23:17:55;100880.40;;;2.61;100.00
34034;BME280;63481;52.588;22.472;2024-02-14T23:22:57;100875.96;;;2.60;100.00
34034;BME280;63481;52.588;22.472;2024-02-14T23:27:59;100874.96;;;2.65;100.00
34034;BME280;63481;52.588;22.472;2024-02-14T23:33:01;100869.06;;;2.73;100.00
34034;BME280;63481;52.588;22.472;2024-02-14T23:38:02;100866.34;;;2.78;100.00
34034;BME280;63481;52.588;22.472;2024-02-14T23:43:05;100864.80;;;2.76;100.00
34034;BME280;63481;52.588;22.472;2024-02-14T23:48:07;100867.78;;;2.87;100.00
34034;BME280;63481;52.588;22.472;2024-02-14T23:53:09;100866.42;;;2.85;100.00
34034;BME280;63481;52.588;22.472;2024-02-14T23:58:11;100870.27;;;2.87;100.00
